createdAt,value
2023-10-20T00:00:16.574Z,16.73
2023-10-20T00:02:43.931Z,14.33
2023-10-20T00:05:11.120Z,12.47
2023-10-20T00:07:38.242Z,12.60
2023-10-20T00:10:06.489Z,10.60
2023-10-20T00:12:33.475Z,10.73
2023-10-20T00:15:00.235Z,8.50
2023-10-20T00:17:27.632Z,12.57
2023-10-20T00:19:54.559Z,12.13
2023-10-20T00:22:21.302Z,9.50
2023-10-20T00:24:48.050Z,10.77
2023-10-20T00:27:14.866Z,8.60
2023-10-20T00:29:42.163Z,11.63
2023-10-20T00:32:09.829Z,9.40
2023-10-20T00:34:36.586Z,8.90
2023-10-20T00:37:03.269Z,9.40
2023-10-20T00:39:31.012Z,11.87
2023-10-20T00:41:57.748Z,9.90
2023-10-20T00:44:24.512Z,9.67
2023-10-20T00:46:51.282Z,7.93
2023-10-20T00:49:20.545Z,15.43
2023-10-20T00:51:47.571Z,8.80
2023-10-20T00:54:16.096Z,10.33
2023-10-20T00:56:43.063Z,7.33
2023-10-20T00:59:10.338Z,6.87
2023-10-20T01:01:37.399Z,9.00
2023-10-20T01:04:04.700Z,7.07
2023-10-20T01:06:32.664Z,6.47
2023-10-20T01:08:59.603Z,9.23
2023-10-20T01:11:26.508Z,7.60
2023-10-20T01:13:53.771Z,9.80
2023-10-20T01:16:20.628Z,9.00
2023-10-20T01:18:48.728Z,8.50
2023-10-20T01:21:15.527Z,7.43
2023-10-20T01:23:42.321Z,7.80
2023-10-20T01:26:09.382Z,7.90
2023-10-20T01:28:36.169Z,8.37
2023-10-20T01:31:02.904Z,10.47
2023-10-20T01:33:29.705Z,11.73
2023-10-20T01:35:56.474Z,8.83
2023-10-20T01:38:23.434Z,7.30
2023-10-20T01:40:50.409Z,9.50
2023-10-20T01:43:17.097Z,9.87
2023-10-20T01:45:43.776Z,12.20
2023-10-20T01:48:10.570Z,9.40
2023-10-20T01:50:38.456Z,8.67
2023-10-20T01:53:05.573Z,8.57
2023-10-20T01:55:32.440Z,14.67
2023-10-20T01:57:59.324Z,9.57
2023-10-20T02:00:25.980Z,8.33
2023-10-20T02:02:52.926Z,10.20
2023-10-20T02:05:19.767Z,10.07
2023-10-20T02:07:46.573Z,10.00
2023-10-20T02:10:13.301Z,10.07
2023-10-20T02:12:40.363Z,10.03
2023-10-20T02:15:09.051Z,10.73
2023-10-20T02:17:36.514Z,11.03
2023-10-20T02:20:04.636Z,9.87
2023-10-20T02:22:31.554Z,10.23
2023-10-20T02:24:58.256Z,8.70
2023-10-20T02:27:24.985Z,8.27
2023-10-20T02:29:51.765Z,11.70
2023-10-20T02:32:18.585Z,11.60
2023-10-20T02:34:45.898Z,9.13
2023-10-20T02:37:13.504Z,7.20
2023-10-20T02:39:41.141Z,10.53
2023-10-20T02:42:08.053Z,13.53
2023-10-20T02:44:34.887Z,11.40
2023-10-20T02:47:01.912Z,9.07
2023-10-20T02:49:29.859Z,11.70
2023-10-20T02:51:57.059Z,9.40
2023-10-20T02:54:23.896Z,7.97
2023-10-20T02:56:50.681Z,7.77
2023-10-20T02:59:17.408Z,8.67
2023-10-20T03:01:44.716Z,8.87
2023-10-20T03:04:11.560Z,9.10
2023-10-20T03:06:38.378Z,8.67
2023-10-20T03:09:05.326Z,10.33
2023-10-20T03:11:32.061Z,8.23
2023-10-20T03:13:58.875Z,7.60
2023-10-20T03:16:26.144Z,6.80
2023-10-20T03:18:53.252Z,10.13
2023-10-20T03:21:20.080Z,6.67
2023-10-20T03:23:47.897Z,7.03
2023-10-20T03:26:14.814Z,6.87
2023-10-20T03:28:42.024Z,5.90
2023-10-20T03:31:08.924Z,7.27
2023-10-20T03:33:35.639Z,4.17
2023-10-20T03:36:04.582Z,3.90
2023-10-20T03:38:31.993Z,8.43
2023-10-20T03:41:10.630Z,6.20
2023-10-20T03:43:37.676Z,3.07
2023-10-20T03:46:07.818Z,3.40
2023-10-20T03:48:36.251Z,4.23
2023-10-20T03:51:06.773Z,4.90
2023-10-20T03:53:48.143Z,3.30
2023-10-20T03:56:16.177Z,4.13
2023-10-20T03:58:43.647Z,6.63
2023-10-20T04:01:10.615Z,4.20
2023-10-20T04:03:37.537Z,6.03
2023-10-20T04:06:09.098Z,4.97
2023-10-20T04:08:35.830Z,8.43
2023-10-20T04:11:02.633Z,7.27
2023-10-20T04:13:30.651Z,8.57
2023-10-20T04:15:57.664Z,5.60
2023-10-20T04:18:24.840Z,8.23
2023-10-20T04:20:58.681Z,10.10
2023-10-20T04:23:26.592Z,9.60
2023-10-20T04:25:56.399Z,7.50
2023-10-20T04:28:50.744Z,10.57
2023-10-20T04:31:38.668Z,9.30
2023-10-20T04:34:24.368Z,8.03
2023-10-20T04:37:09.653Z,6.77
2023-10-20T04:39:55.118Z,9.87
2023-10-20T04:42:21.972Z,11.13
2023-10-20T04:44:59.435Z,16.60
2023-10-20T04:47:26.525Z,10.80
2023-10-20T04:49:59.812Z,6.80
2023-10-20T04:52:38.587Z,10.10
2023-10-20T04:55:11.799Z,6.60
2023-10-20T04:57:51.145Z,7.97
2023-10-20T05:00:23.723Z,6.73
2023-10-20T05:02:51.611Z,8.30
2023-10-20T05:05:26.518Z,7.20
2023-10-20T05:07:54.467Z,8.10
2023-10-20T05:10:21.654Z,7.87
2023-10-20T05:12:48.815Z,9.57
2023-10-20T05:15:16.379Z,10.80
2023-10-20T05:17:44.407Z,8.20
2023-10-20T05:20:14.164Z,6.57
2023-10-20T05:22:41.786Z,6.33
2023-10-20T05:25:09.840Z,5.70
2023-10-20T05:27:36.530Z,8.30
2023-10-20T05:30:04.966Z,6.73
2023-10-20T05:32:34.663Z,9.00
2023-10-20T05:35:02.243Z,4.60
2023-10-20T05:37:29.570Z,8.10
2023-10-20T05:39:56.288Z,5.43
2023-10-20T05:42:23.420Z,6.37
2023-10-20T05:45:09.252Z,5.00
2023-10-20T05:47:36.649Z,5.47
2023-10-20T05:50:04.123Z,7.47
2023-10-20T05:52:30.882Z,2.83
2023-10-20T05:54:58.454Z,4.33
2023-10-20T05:57:26.862Z,4.73
2023-10-20T05:59:53.611Z,4.33
2023-10-20T06:02:20.416Z,8.17
2023-10-20T06:04:47.207Z,4.10
2023-10-20T06:07:13.915Z,5.97
2023-10-20T06:09:40.933Z,3.27
2023-10-20T06:12:11.559Z,3.27
2023-10-20T06:14:38.522Z,5.87
2023-10-20T06:17:05.326Z,5.67
2023-10-20T06:19:32.772Z,8.47
2023-10-20T06:22:01.450Z,4.73
2023-10-20T06:24:29.311Z,5.50
2023-10-20T06:27:03.824Z,3.87
2023-10-20T06:29:34.391Z,6.10
2023-10-20T06:32:19.910Z,3.33
2023-10-20T06:34:47.941Z,3.03
2023-10-20T06:37:23.705Z,4.77
2023-10-20T06:39:50.574Z,5.57
2023-10-20T06:42:18.028Z,4.87
2023-10-20T06:44:44.847Z,7.20
2023-10-20T06:47:12.499Z,4.27
2023-10-20T06:49:39.269Z,6.60
2023-10-20T06:52:06.060Z,15.80
2023-10-20T06:54:33.379Z,8.00
2023-10-20T06:57:01.075Z,2.73
2023-10-20T06:59:27.999Z,4.17
2023-10-20T07:02:01.285Z,3.57
2023-10-20T07:04:29.068Z,5.33
2023-10-20T07:06:58.382Z,5.67
2023-10-20T07:09:25.717Z,8.17
2023-10-20T07:11:53.470Z,7.00
2023-10-20T07:14:20.654Z,3.67
2023-10-20T07:16:47.718Z,6.83
2023-10-20T07:19:14.496Z,3.77
2023-10-20T07:21:41.542Z,4.63
2023-10-20T07:24:08.623Z,3.07
2023-10-20T07:26:36.117Z,5.90
2023-10-20T07:29:04.206Z,6.43
2023-10-20T07:31:31.367Z,7.57
2023-10-20T07:33:59.328Z,7.70
2023-10-20T07:36:26.358Z,5.87
2023-10-20T07:38:53.198Z,5.40
2023-10-20T07:41:20.069Z,3.60
2023-10-20T07:43:46.836Z,2.37
2023-10-20T07:46:17.754Z,3.50
2023-10-20T07:48:45.301Z,5.70
2023-10-20T07:51:12.854Z,3.10
2023-10-20T07:53:40.088Z,5.60
2023-10-20T07:56:06.945Z,4.67
2023-10-20T07:58:34.444Z,3.63
2023-10-20T08:01:02.052Z,5.03
2023-10-20T08:03:29.319Z,1.73
2023-10-20T08:05:56.928Z,4.90
2023-10-20T08:08:24.212Z,7.57
2023-10-20T08:10:53.279Z,1.90
2023-10-20T08:13:20.593Z,1.23
2023-10-20T08:15:47.420Z,3.53
2023-10-20T08:18:14.360Z,6.03
2023-10-20T08:20:41.208Z,6.67
2023-10-20T08:23:08.080Z,2.77
2023-10-20T08:25:38.725Z,4.07
2023-10-20T08:28:06.221Z,2.77
2023-10-20T08:30:32.990Z,4.73
2023-10-20T08:33:00.745Z,7.67
2023-10-20T08:35:27.949Z,3.90
2023-10-20T08:37:54.815Z,4.10
2023-10-20T08:40:21.543Z,4.93
2023-10-20T08:42:49.840Z,8.83
2023-10-20T08:45:17.227Z,5.20
2023-10-20T08:47:44.875Z,2.03
2023-10-20T08:50:17.190Z,3.97
2023-10-20T08:52:46.055Z,4.30
2023-10-20T08:55:14.573Z,6.13
2023-10-20T08:57:41.756Z,4.33
2023-10-20T09:00:09.528Z,3.83
2023-10-20T09:02:38.456Z,3.70
2023-10-20T09:05:06.044Z,3.80
2023-10-20T09:07:32.704Z,6.93
2023-10-20T09:09:59.938Z,5.33
2023-10-20T09:12:30.172Z,2.30
2023-10-20T09:14:58.322Z,3.43
2023-10-20T09:17:25.386Z,3.07
2023-10-20T09:19:52.215Z,6.20
2023-10-20T09:22:30.102Z,3.17
2023-10-20T09:24:57.871Z,4.20
2023-10-20T09:27:25.882Z,2.73
2023-10-20T09:29:55.422Z,4.10
2023-10-20T09:32:22.378Z,5.60
2023-10-20T09:34:50.017Z,2.37
2023-10-20T09:37:22.620Z,4.77
2023-10-20T09:39:55.737Z,4.67
2023-10-20T09:42:25.659Z,3.77
2023-10-20T09:45:07.680Z,9.20
2023-10-20T09:47:36.823Z,3.17
2023-10-20T09:50:04.112Z,6.40
2023-10-20T09:52:31.381Z,6.90
2023-10-20T09:55:00.214Z,2.77
2023-10-20T09:57:28.634Z,2.17
2023-10-20T09:59:55.626Z,8.43
2023-10-20T10:02:30.259Z,7.33
2023-10-20T10:04:58.257Z,2.87
2023-10-20T10:07:35.167Z,4.47
2023-10-20T10:10:05.048Z,5.97
2023-10-20T10:12:34.202Z,3.40
2023-10-20T10:15:09.294Z,8.97
2023-10-20T10:17:47.434Z,2.37
2023-10-20T10:20:24.773Z,3.43
2023-10-20T10:23:11.229Z,8.00
2023-10-20T10:25:40.852Z,2.10
2023-10-20T10:28:15.016Z,3.20
2023-10-20T10:30:43.653Z,5.27
2023-10-20T10:33:14.105Z,6.70
2023-10-20T10:35:41.893Z,4.10
2023-10-20T10:38:23.499Z,6.57
2023-10-20T10:40:53.732Z,3.50
2023-10-20T10:43:23.918Z,9.70
2023-10-20T10:45:54.778Z,7.83
2023-10-20T10:48:27.127Z,5.17
2023-10-20T10:50:54.147Z,5.90
2023-10-20T10:53:21.113Z,9.10
2023-10-20T10:55:47.888Z,6.07
2023-10-20T10:58:15.772Z,4.03
2023-10-20T11:00:45.272Z,10.10
2023-10-20T11:03:13.075Z,5.90
2023-10-20T11:05:40.605Z,7.43
2023-10-20T11:08:09.341Z,9.13
2023-10-20T11:10:39.162Z,4.30
2023-10-20T11:13:11.726Z,8.00
2023-10-20T11:15:38.821Z,9.67
2023-10-20T11:18:07.189Z,5.57
2023-10-20T11:20:37.741Z,7.80
2023-10-20T11:23:08.282Z,7.97
2023-10-20T11:25:37.630Z,12.63
2023-10-20T11:28:04.863Z,9.33
2023-10-20T11:30:32.852Z,9.47
2023-10-20T11:33:00.175Z,6.57
2023-10-20T11:35:28.085Z,10.87
2023-10-20T11:37:56.121Z,6.50
2023-10-20T11:40:24.027Z,6.90
2023-10-20T11:42:51.187Z,4.50
2023-10-20T11:45:18.249Z,8.30
2023-10-20T11:47:45.373Z,6.57
2023-10-20T11:50:12.388Z,8.03
2023-10-20T11:52:40.089Z,5.20
2023-10-20T11:55:11.328Z,11.70
2023-10-20T11:57:39.229Z,4.43
2023-10-20T12:00:10.995Z,8.37
2023-10-20T12:02:39.632Z,8.90
2023-10-20T12:05:07.660Z,11.17
2023-10-20T12:07:34.655Z,7.27
2023-10-20T12:10:01.472Z,9.67
2023-10-20T12:12:28.527Z,6.47
2023-10-20T12:14:55.365Z,10.27
2023-10-20T12:17:22.281Z,11.47
2023-10-20T12:19:50.376Z,7.87
2023-10-20T12:22:18.669Z,9.93
2023-10-20T12:24:45.494Z,17.97
2023-10-20T12:27:14.353Z,10.47
2023-10-20T12:29:41.858Z,7.43
2023-10-20T12:32:13.896Z,5.67
2023-10-20T12:34:41.256Z,5.90
2023-10-20T12:37:08.586Z,7.53
2023-10-20T12:39:35.430Z,7.07
2023-10-20T12:42:06.201Z,12.33
2023-10-20T12:44:35.271Z,8.33
2023-10-20T12:47:02.409Z,8.40
2023-10-20T12:49:29.227Z,7.80
2023-10-20T12:51:56.693Z,6.70
2023-10-20T12:54:24.762Z,11.87
2023-10-20T12:56:51.651Z,8.07
2023-10-20T12:59:18.560Z,7.90
2023-10-20T13:01:45.706Z,9.43
2023-10-20T13:04:12.695Z,9.47
2023-10-20T13:06:53.973Z,7.33
2023-10-20T13:09:25.611Z,9.43
2023-10-20T13:11:52.488Z,5.70
2023-10-20T13:14:19.297Z,10.83
2023-10-20T13:16:46.154Z,4.30
2023-10-20T13:19:15.055Z,11.47
2023-10-20T13:21:42.670Z,10.60
2023-10-20T13:24:10.899Z,6.20
2023-10-20T13:26:37.761Z,6.53
2023-10-20T13:29:04.658Z,15.30
2023-10-20T13:31:32.805Z,9.47
2023-10-20T13:34:00.451Z,10.17
2023-10-20T13:36:27.346Z,8.17
2023-10-20T13:38:54.475Z,8.03
2023-10-20T13:41:21.389Z,10.97
2023-10-20T13:43:48.224Z,7.23
2023-10-20T13:46:15.017Z,7.10
2023-10-20T13:48:41.824Z,5.00
2023-10-20T13:51:09.928Z,7.87
2023-10-20T13:53:37.294Z,6.87
2023-10-20T13:56:04.422Z,4.67
2023-10-20T13:58:31.456Z,8.50
2023-10-20T14:00:58.594Z,12.53
2023-10-20T14:03:26.884Z,8.50
2023-10-20T14:05:57.370Z,4.33
2023-10-20T14:08:24.641Z,8.37
2023-10-20T14:10:51.982Z,8.27
2023-10-20T14:13:18.788Z,3.70
2023-10-20T14:15:46.006Z,11.13
2023-10-20T14:18:13.321Z,11.30
2023-10-20T14:20:40.804Z,6.13
2023-10-20T14:23:08.957Z,7.47
2023-10-20T14:25:36.863Z,8.63
2023-10-20T14:28:06.678Z,7.67
2023-10-20T14:30:34.134Z,6.97
2023-10-20T14:33:01.213Z,4.27
2023-10-20T14:35:28.065Z,9.13
2023-10-20T14:37:54.885Z,9.17
2023-10-20T14:40:21.724Z,11.63
2023-10-20T14:42:48.473Z,15.70
2023-10-20T14:45:15.333Z,6.83
2023-10-20T14:47:42.255Z,5.07
2023-10-20T14:50:11.829Z,14.40
2023-10-20T14:52:41.205Z,6.03
2023-10-20T14:55:10.144Z,12.20
2023-10-20T14:57:37.255Z,13.73
2023-10-20T15:00:10.640Z,8.47
2023-10-20T15:02:39.506Z,5.63
2023-10-20T15:05:07.118Z,4.90
2023-10-20T15:07:34.227Z,9.37
2023-10-20T15:10:01.448Z,8.37
2023-10-20T15:12:28.306Z,10.97
2023-10-20T15:14:55.306Z,4.80
2023-10-20T15:17:22.284Z,5.10
2023-10-20T15:19:49.063Z,16.57
2023-10-20T15:22:15.935Z,6.97
2023-10-20T15:24:42.669Z,5.20
2023-10-20T15:27:09.462Z,4.97
2023-10-20T15:29:36.447Z,17.50
2023-10-20T15:32:03.454Z,6.40
2023-10-20T15:34:31.836Z,5.20
2023-10-20T15:36:58.742Z,3.57
2023-10-20T15:39:35.991Z,7.87
2023-10-20T15:42:04.283Z,7.13
2023-10-20T15:44:31.040Z,6.70
2023-10-20T15:46:57.812Z,3.23
2023-10-20T15:49:24.596Z,10.17
2023-10-20T15:51:51.316Z,8.47
2023-10-20T15:54:19.766Z,7.78
2023-10-20T15:56:46.706Z,8.43
2023-10-20T15:59:14.077Z,8.87
2023-10-20T16:01:40.913Z,8.87
2023-10-20T16:04:07.844Z,11.83
2023-10-20T16:06:36.800Z,6.53
2023-10-20T16:09:08.194Z,2.60
2023-10-20T16:11:35.391Z,12.23
2023-10-20T16:14:02.166Z,6.23
2023-10-20T16:16:29.090Z,3.30
2023-10-20T16:18:55.955Z,12.77
2023-10-20T16:21:24.217Z,9.00
2023-10-20T16:23:51.047Z,8.37
2023-10-20T16:26:17.862Z,3.70
2023-10-20T16:28:44.619Z,8.20
2023-10-20T16:31:12.493Z,4.87
2023-10-20T16:33:39.520Z,5.97
2023-10-20T16:36:08.748Z,8.20
2023-10-20T16:38:35.517Z,5.53
2023-10-20T16:41:02.607Z,6.07
2023-10-20T16:43:30.697Z,5.83
2023-10-20T16:45:57.555Z,8.20
2023-10-20T16:48:26.285Z,13.17
2023-10-20T16:50:59.736Z,7.93
2023-10-20T16:53:26.672Z,4.47
2023-10-20T16:55:58.881Z,3.93
2023-10-20T16:58:27.112Z,8.47
2023-10-20T17:00:54.543Z,9.13
2023-10-20T17:03:21.543Z,7.57
2023-10-20T17:05:48.377Z,8.50
2023-10-20T17:08:15.239Z,9.13
2023-10-20T17:10:41.982Z,8.70
2023-10-20T17:13:09.079Z,9.80
2023-10-20T17:15:35.921Z,7.53
2023-10-20T17:18:03.004Z,7.33
2023-10-20T17:20:30.216Z,7.47
2023-10-20T17:22:57.146Z,5.87
2023-10-20T17:25:23.918Z,9.23
2023-10-20T17:27:50.763Z,9.93
2023-10-20T17:30:17.684Z,9.80
2023-10-20T17:32:46.045Z,9.10
2023-10-20T17:35:13.627Z,10.50
2023-10-20T17:37:41.788Z,10.17
2023-10-20T17:40:13.088Z,7.13
2023-10-20T17:42:40.384Z,8.53
2023-10-20T17:45:07.551Z,10.77
2023-10-20T17:47:34.721Z,13.10
2023-10-20T17:50:01.536Z,6.47
2023-10-20T17:52:28.417Z,7.40
2023-10-20T17:54:55.244Z,8.00
2023-10-20T17:57:23.397Z,11.47
2023-10-20T17:59:50.209Z,6.70
2023-10-20T18:02:16.983Z,7.57
2023-10-20T18:04:43.892Z,11.13
2023-10-20T18:07:10.739Z,7.13
2023-10-20T18:09:37.551Z,11.47
2023-10-20T18:12:04.771Z,6.47
2023-10-20T18:14:31.961Z,8.07
2023-10-20T18:16:59.460Z,11.17
2023-10-20T18:19:26.153Z,7.80
2023-10-20T18:21:52.913Z,9.17
2023-10-20T18:24:19.724Z,8.13
2023-10-20T18:26:47.536Z,10.17
2023-10-20T18:29:14.396Z,6.73
2023-10-20T18:31:41.354Z,10.97
2023-10-20T18:34:09.423Z,10.13
2023-10-20T18:36:36.343Z,9.27
2023-10-20T18:39:03.120Z,6.27
2023-10-20T18:41:30.954Z,7.00
2023-10-20T18:43:57.718Z,6.13
2023-10-20T18:46:25.341Z,6.73
2023-10-20T18:48:53.062Z,12.43
2023-10-20T18:51:19.877Z,10.63
2023-10-20T18:53:46.973Z,11.50
2023-10-20T18:56:13.856Z,4.20
2023-10-20T18:58:40.723Z,12.97
2023-10-20T19:01:08.220Z,6.03
2023-10-20T19:03:35.309Z,12.40
2023-10-20T19:06:09.657Z,5.27
2023-10-20T19:08:38.454Z,8.47
2023-10-20T19:11:06.276Z,7.73
2023-10-20T19:13:34.793Z,7.67
2023-10-20T19:16:02.155Z,8.63
2023-10-20T19:18:29.079Z,9.70
2023-10-20T19:21:00.749Z,14.23
2023-10-20T19:23:27.800Z,10.87
2023-10-20T19:26:02.678Z,8.57
2023-10-20T19:28:30.752Z,7.47
2023-10-20T19:31:00.060Z,6.67
2023-10-20T19:33:32.804Z,4.37
2023-10-20T19:36:04.373Z,6.07
2023-10-20T19:38:33.661Z,5.40
2023-10-20T19:41:00.433Z,6.27
2023-10-20T19:43:27.310Z,5.80
2023-10-20T19:45:54.334Z,6.13
2023-10-20T19:48:21.438Z,7.67
2023-10-20T19:50:48.435Z,5.10
2023-10-20T19:53:15.488Z,6.47
2023-10-20T19:55:43.961Z,7.57
2023-10-20T19:58:10.847Z,5.30
2023-10-20T20:00:37.723Z,6.00
2023-10-20T20:03:05.064Z,2.57
2023-10-20T20:05:32.015Z,7.23
2023-10-20T20:07:59.010Z,5.07
2023-10-20T20:10:25.765Z,4.57
2023-10-20T20:12:53.142Z,4.53
2023-10-20T20:15:21.837Z,6.97
2023-10-20T20:17:50.340Z,2.07
2023-10-20T20:20:18.036Z,2.37
2023-10-20T20:22:44.795Z,7.60
2023-10-20T20:25:11.593Z,2.33
2023-10-20T20:27:38.463Z,1.80
2023-10-20T20:30:05.815Z,3.10
2023-10-20T20:32:32.744Z,2.47
2023-10-20T20:35:00.830Z,1.57
2023-10-20T20:37:27.853Z,2.10
2023-10-20T20:39:54.593Z,4.37
2023-10-20T20:42:21.423Z,2.43
2023-10-20T20:44:48.256Z,1.77
2023-10-20T20:47:15.068Z,1.43
2023-10-20T20:49:41.792Z,2.80
2023-10-20T20:52:08.756Z,2.40
2023-10-20T20:54:35.441Z,2.63
2023-10-20T20:57:02.195Z,2.00
2023-10-20T20:59:29.025Z,2.27
2023-10-20T21:01:55.846Z,2.53
2023-10-20T21:04:22.720Z,1.93
2023-10-20T21:06:49.457Z,4.27
2023-10-20T21:09:16.234Z,2.00
2023-10-20T21:11:43.192Z,1.20
2023-10-20T21:14:10.070Z,2.40
2023-10-20T21:16:36.812Z,0.90
2023-10-20T21:19:04.889Z,3.07
2023-10-20T21:21:31.649Z,0.87
2023-10-20T21:23:58.769Z,1.07
2023-10-20T21:26:25.548Z,1.10
2023-10-20T21:28:52.897Z,1.47
2023-10-20T21:31:20.488Z,1.17
2023-10-20T21:33:48.010Z,3.40
2023-10-20T21:36:18.664Z,1.10
2023-10-20T21:38:45.554Z,3.50
2023-10-20T21:41:12.350Z,0.77
2023-10-20T21:43:39.274Z,1.10
2023-10-20T21:46:06.073Z,1.00
2023-10-20T21:48:32.878Z,2.47
2023-10-20T21:51:01.987Z,1.10
2023-10-20T21:53:31.445Z,3.90
2023-10-20T21:56:04.887Z,1.87
2023-10-20T21:58:32.424Z,1.30
2023-10-20T22:01:00.359Z,3.33
2023-10-20T22:03:30.231Z,1.40
2023-10-20T22:05:57.177Z,0.90
2023-10-20T22:08:24.235Z,0.80
2023-10-20T22:10:51.761Z,1.07
2023-10-20T22:13:18.907Z,2.27
2023-10-20T22:15:45.766Z,1.00
2023-10-20T22:18:12.912Z,1.00
2023-10-20T22:20:40.369Z,2.10
2023-10-20T22:23:07.976Z,3.70
2023-10-20T22:25:38.882Z,0.80
2023-10-20T22:28:06.278Z,1.23
2023-10-20T22:30:33.878Z,1.60
2023-10-20T22:33:00.990Z,1.93
2023-10-20T22:35:27.999Z,0.90
2023-10-20T22:37:54.921Z,0.97
2023-10-20T22:40:22.538Z,0.80
2023-10-20T22:42:49.391Z,2.63
2023-10-20T22:45:16.479Z,2.87
2023-10-20T22:47:43.312Z,1.93
2023-10-20T22:50:10.490Z,1.80
2023-10-20T22:52:37.331Z,1.10
2023-10-20T22:55:04.983Z,1.00
2023-10-20T22:57:32.918Z,1.10
2023-10-20T23:00:00.535Z,4.90
2023-10-20T23:02:27.596Z,1.47
2023-10-20T23:04:54.476Z,0.90
2023-10-20T23:07:21.316Z,0.80
2023-10-20T23:09:48.082Z,0.60
2023-10-20T23:12:16.840Z,2.83
2023-10-20T23:14:44.081Z,1.90
2023-10-20T23:17:10.977Z,1.50
2023-10-20T23:19:38.031Z,1.30
2023-10-20T23:22:05.624Z,0.90
2023-10-20T23:24:32.412Z,1.60
2023-10-20T23:26:59.394Z,1.73
2023-10-20T23:29:26.475Z,0.60
2023-10-20T23:31:53.459Z,1.17
2023-10-20T23:34:20.340Z,3.50
2023-10-20T23:36:47.089Z,1.00
2023-10-20T23:39:13.902Z,1.47
2023-10-20T23:41:40.635Z,0.80
2023-10-20T23:44:07.353Z,2.27
2023-10-20T23:46:35.578Z,0.70
2023-10-20T23:49:02.443Z,1.00
2023-10-20T23:51:29.827Z,1.20
2023-10-20T23:53:56.608Z,0.80
2023-10-20T23:56:23.424Z,1.63
2023-10-20T23:58:50.164Z,0.93
